Helena, MT

3:19 AM MDT on May 27, 2015 (GMT -0600)
APRSWXNET | | Change Station
CLOSE
Current Station
Personal Weather Station
Location: Helena, MT
Elevation: 3733 ft
Nearby Weather Stations

Elev 3733 ft 46.64 °N, 111.94 °W | Updated 42 minutes ago

Rain
Rain
53 °F
Feels Like 53 °F
N
0
Wind Variable Wind from WNW
Gusts 3.0 mph

Today
High -- | Low -- °F
--% Chance of Precip.
Yesterday
High -- | Low -- °F
Precip. -- in
5:41 AM 9:08 PM
Waxing Gibbous, 65% visible
Pressure 30.03 in
Visibility 6.0 miles
Clouds Mostly Cloudy 5500 ft
Mostly Cloudy 7000 ft
Overcast 9000 ft
Dew Point 45 °F
Humidity 74%
Rainfall in
Snow Depth Not available.
UV 0 out of 12
Pollen 4.10 out of 12
Air Quality Not available.
Flu Activity Sporadic
METAR KHLN 270853Z AUTO 10004KT 6SM -RA BKN055 BKN070 OVC090 12/08 A3003

More Conditions Fewer Conditions

Pressure 30.03 in
Visibility 6.0 miles
Clouds Mostly Cloudy 5500 ft
Mostly Cloudy 7000 ft
Overcast 9000 ft
Dew Point 45 °F
Humidity 74%
Rainfall in
Snow Depth Not available.
UV 0 out of 12
Pollen 4.10 out of 12
Air Quality Not available.
Flu Activity Sporadic
METAR KHLN 270853Z AUTO 10004KT 6SM -RA BKN055 BKN070 OVC090 12/08 A3003

More Conditions Fewer Conditions

10-Day Weather Forecast

Almanac

Astronomy

May. 27, 2015 Rise Set
Actual Time
Civil Twilight
Nautical Twilight
Astronomical Twilight
Moon
Length of Visible Light
Length of Day
Tomorrow will be .
, % of the Moon is Illuminated

Today's Extremes

State Highs State Lows

Community

WunderPhotos

Upload Photos

1,824,634 photos uploaded!

WunderBlogs® & News

Nearby

Air Quality

  Air Quality AQ Index Pollutant
Not available.

Snow Depth

Station Depth Elevation

Earthquake Activity

City Distance Mag. Time & Date
Minimum magnitude displayed is 2.5.

Coastal Water Temperatures

Place Temperature

Stations

Nearby Weather Stations

Station Location Temp. Windchill Dew Point Humidity Wind Precip. Elev Updated Type